El Paso, TX (88520)

8:15 PM MDT on September 21, 2014 (GMT -0600)
DOLPHIN | Change Station
CLOSE
Current Station
Personal Weather Station
Location: EL PASO, TX
Elevation: 3898 ft
Nearby Weather Stations
Active Advisory: Flash Flood Watch

Elev 3898 ft 31.89 °N, 106.40 °W | Updated 0 second ago

Mostly Cloudy
Mostly Cloudy
77.4 °F
Feels Like 79 °F
N
0.0
Wind Variable Wind from North
Gusts 0.0 mph

Today
High -- | Low -- °F
--% Chance of Precip.
Yesterday
High -- | Low -- °F
Precip. -- in
6:53 AM 7:03 PM
Waning Crescent, 4% visible
Pressure 29.92 in
Visibility 10.0 miles
Clouds Scattered Clouds 6000 ft
Mostly Cloudy 20000 ft
Heat Index 79 °F
Dew Point 63 °F
Humidity 61%
Rainfall 0.00 in
Snow Depth Not available.
UV 0 out of 12
Pollen 8.20 out of 12
Air Quality Not available.
Flu Activity Not available.
METAR KELP 220151Z 07013KT 10SM SCT060 BKN200 26/17 A3012 RMK AO2 SLP131 T02610167

More Conditions Fewer Conditions

Pressure 29.92 in
Visibility 10.0 miles
Clouds Scattered Clouds 6000 ft
Mostly Cloudy 20000 ft
Heat Index 79 °F
Dew Point 63 °F
Humidity 61%
Rainfall 0.00 in
Snow Depth Not available.
UV 0 out of 12
Pollen 8.20 out of 12
Air Quality Not available.
Flu Activity Not available.
METAR KELP 220151Z 07013KT 10SM SCT060 BKN200 26/17 A3012 RMK AO2 SLP131 T02610167

More Conditions Fewer Conditions

10-Day Weather Forecast

Almanac

Astronomy

Sep. 21, 2014 Rise Set
Actual Time 6:53 AM MDT 7:03 PM MDT
Civil Twilight 6:28 AM MDT 7:27 PM MDT
Nautical Twilight 6:00 AM MDT 7:56 PM MDT
Astronomical Twilight 5:31 AM MDT 8:24 PM MDT
Moon 4:36 AM MDT (9/21) 5:36 PM MDT (9/21)
Length of Visible Light 12h 58m
Length of Day
12h 10m
Tomorrow will be 1m 56s shorter.
Waning Crescent, 4% of the Moon is Illuminated
Today
Waning Crescent
Sep 24
New
Oct 1
First Quarter
Oct 8
Full
Oct 15
Last Quarter

Today's Extremes

State Highs State Lows

Community

WunderPhotos

Upload Photos

1,755,347 photos uploaded!

WunderBlogs® & News

Nearby

Snow Depth

Station Depth Elevation
No new snow has been reported.

Earthquake Activity

City Distance Mag. Time & Date
No recent earthquake activity has been reported nearby.
Minimum magnitude displayed is 2.5.

Coastal Water Temperatures

Place Temperature
No Stations Reporting

Nearby Weather Stations